Time;durP1;ratioP1;P1;durP2;ratioP2;P2;SDS_P1;SDS_P2;PMS_P1;PMS_P2;Temp;Humidity;BMP_temperature;BMP_pressure;BME280_temperature;BME280_humidity;BME280_pressure;Samples;Min_cycle;Max_cycle;Signal;HPM_P1;HPM_P2
2021/10/21 00:00:39;;;;;;;1.00;0.70;;;;;;;14.77;100.00;99051.84;6232138;28;20141;-76
2021/10/21 00:03:40;;;;;;;1.27;0.60;;;;;;;14.71;100.00;99040.88;6248176;28;20398;-76
2021/10/21 00:06:41;;;;;;;2.00;1.05;;;;;;;14.65;100.00;99045.94;6248117;28;20072;-77
2021/10/21 00:09:44;;;;;;;1.08;0.82;;;;;;;14.64;100.00;99049.56;6248413;28;20049;-75
2021/10/21 00:12:45;;;;;;;2.17;0.75;;;;;;;14.66;100.00;99034.38;6248394;28;20507;-76
2021/10/21 00:15:47;;;;;;;1.67;0.80;;;;;;;14.64;100.00;99023.13;6247945;28;20052;-76
2021/10/21 00:18:49;;;;;;;0.98;0.75;;;;;;;14.60;100.00;99008.56;6248198;28;20053;-76
2021/10/21 00:21:50;;;;;;;1.05;0.82;;;;;;;14.58;100.00;99000.78;6247742;28;20050;-75
2021/10/21 00:24:53;;;;;;;0.90;0.77;;;;;;;14.61;100.00;98968.72;6247679;28;20049;-75
2021/10/21 00:27:55;;;;;;;1.63;1.13;;;;;;;14.40;100.00;98966.38;6247546;28;20535;-75
2021/10/21 00:30:56;;;;;;;1.98;1.50;;;;;;;14.20;100.00;98948.97;6246477;28;20064;-75
2021/10/21 00:33:57;;;;;;;2.60;1.08;;;;;;;13.99;100.00;98928.13;6246335;28;20586;-75
2021/10/21 00:36:59;;;;;;;4.35;0.90;;;;;;;13.83;100.00;98947.25;6247537;28;20060;-76
2021/10/21 00:40:01;;;;;;;3.00;1.10;;;;;;;13.76;100.00;98909.19;6247476;28;20056;-75
2021/10/21 00:43:03;;;;;;;4.18;1.17;;;;;;;13.60;100.00;98930.13;6247510;28;20049;-75
2021/10/21 00:46:06;;;;;;;2.38;0.98;;;;;;;13.55;100.00;98901.53;6247083;28;20059;-74
2021/10/21 00:49:08;;;;;;;4.10;1.00;;;;;;;13.50;100.00;98874.75;6247168;28;20057;-75
2021/10/21 00:52:09;;;;;;;2.95;1.00;;;;;;;13.45;100.00;98855.88;6247413;28;20049;-75
2021/10/21 00:55:12;;;;;;;2.05;1.35;;;;;;;13.40;100.00;98831.75;6246542;28;20060;-75
2021/10/21 00:58:14;;;;;;;3.15;1.15;;;;;;;13.38;100.00;98813.41;6247253;28;20078;-75
2021/10/21 01:01:15;;;;;;;1.80;1.27;;;;;;;13.35;100.00;98786.50;6246269;28;20053;-74
2021/10/21 01:04:16;;;;;;;2.53;1.20;;;;;;;13.28;100.00;98773.06;6246749;28;20050;-75
2021/10/21 01:07:18;;;;;;;1.40;0.98;;;;;;;13.23;100.00;98754.22;6246926;28;20053;-75
2021/10/21 01:10:21;;;;;;;0.95;0.90;;;;;;;13.18;100.00;98744.09;6246783;28;20439;-75
2021/10/21 01:13:22;;;;;;;1.73;1.33;;;;;;;13.13;100.00;98732.31;6246890;28;20076;-75
2021/10/21 01:16:24;;;;;;;4.65;1.13;;;;;;;13.09;100.00;98723.03;6246788;28;20140;-75
2021/10/21 01:19:26;;;;;;;6.55;1.52;;;;;;;13.07;100.00;98717.91;6246777;28;20405;-75
2021/10/21 01:22:29;;;;;;;1.60;1.10;;;;;;;13.04;100.00;98693.66;6247089;28;20045;-75
2021/10/21 01:25:30;;;;;;;2.15;1.58;;;;;;;12.99;100.00;98678.28;6246297;28;20052;-75
2021/10/21 01:28:35;;;;;;;3.30;1.23;;;;;;;12.98;100.00;98660.78;6246619;28;20076;-74
2021/10/21 01:31:37;;;;;;;1.50;1.15;;;;;;;13.00;100.00;98650.09;6245893;28;20053;-75
2021/10/21 01:34:39;;;;;;;2.88;1.80;;;;;;;13.04;100.00;98644.38;6246207;28;20416;-74
2021/10/21 01:37:42;;;;;;;2.55;1.42;;;;;;;13.00;100.00;98631.66;6246631;28;20053;-74
2021/10/21 01:40:44;;;;;;;3.28;2.00;;;;;;;13.02;100.00;98619.94;6246434;28;20160;-74
2021/10/21 01:43:46;;;;;;;2.35;1.50;;;;;;;13.06;100.00;98613.41;6251265;28;20045;-75
2021/10/21 01:46:47;;;;;;;2.60;1.27;;;;;;;13.09;100.00;98615.75;6251342;28;20052;-74
2021/10/21 01:49:48;;;;;;;2.35;1.70;;;;;;;13.15;100.00;98599.31;6251693;28;20060;-75
2021/10/21 01:52:52;;;;;;;1.88;1.35;;;;;;;13.18;100.00;98596.38;6251312;28;20046;-75
2021/10/21 01:55:53;;;;;;;2.88;1.65;;;;;;;13.20;100.00;98591.78;6251056;28;20053;-75
2021/10/21 01:58:55;;;;;;;2.25;1.40;;;;;;;13.24;100.00;98573.88;6251448;28;20049;-75
2021/10/21 02:01:56;;;;;;;3.28;1.77;;;;;;;13.29;100.00;98560.22;6249434;28;20049;-75
2021/10/21 02:04:58;;;;;;;2.40;1.58;;;;;;;13.34;100.00;98552.69;6250724;28;20045;-75
2021/10/21 02:08:00;;;;;;;3.70;1.17;;;;;;;13.34;100.00;98553.50;6250969;28;20049;-75
2021/10/21 02:11:02;;;;;;;2.55;1.58;;;;;;;13.41;100.00;98540.53;6251182;28;20045;-75
2021/10/21 02:14:03;;;;;;;6.22;1.77;;;;;;;13.45;100.00;98555.09;6250807;28;20413;-75
2021/10/21 02:17:06;;;;;;;3.47;1.40;;;;;;;13.52;100.00;98561.38;6250900;28;20054;-74
2021/10/21 02:20:09;;;;;;;2.90;2.13;;;;;;;13.60;100.00;98540.34;6250683;28;20049;-75
2021/10/21 02:23:12;;;;;;;1.45;1.20;;;;;;;13.65;100.00;98531.94;6250885;28;20046;-75
2021/10/21 02:26:13;;;;;;;2.47;1.35;;;;;;;13.64;100.00;98512.66;6250434;28;20053;-76
2021/10/21 02:29:15;;;;;;;2.83;1.80;;;;;;;13.60;100.00;98500.75;6250475;28;20115;-75
2021/10/21 02:32:16;;;;;;;2.33;1.70;;;;;;;13.52;100.00;98478.75;6249737;28;20060;-75
2021/10/21 02:35:18;;;;;;;1.80;1.27;;;;;;;13.55;100.00;98479.28;6249900;28;20049;-74
2021/10/21 02:38:20;;;;;;;3.33;1.52;;;;;;;13.52;100.00;98428.63;6250363;28;20049;-74
2021/10/21 02:41:23;;;;;;;2.22;1.10;;;;;;;13.51;100.00;98404.06;6250160;28;20528;-75
2021/10/21 02:44:24;;;;;;;2.22;1.42;;;;;;;13.44;100.00;98392.47;6250160;28;20053;-74
2021/10/21 02:47:25;;;;;;;1.95;1.23;;;;;;;13.44;100.00;98388.03;6249890;28;20056;-75
2021/10/21 02:50:27;;;;;;;2.00;1.15;;;;;;;13.37;100.00;98379.09;6250069;28;20432;-74
2021/10/21 02:53:29;;;;;;;1.92;1.02;;;;;;;13.36;100.00;98355.53;6249301;28;20060;-75
2021/10/21 02:56:31;;;;;;;2.15;1.20;;;;;;;13.32;100.00;98338.34;6249369;28;20504;-74
2021/10/21 02:59:32;;;;;;;1.63;1.05;;;;;;;13.29;100.00;98309.63;6249916;28;20057;-75
2021/10/21 03:02:33;;;;;;;1.17;0.98;;;;;;;13.33;100.00;98310.97;6249349;28;20412;-75
2021/10/21 03:05:35;;;;;;;2.63;1.10;;;;;;;13.29;100.00;98333.38;6249254;28;20397;-75
2021/10/21 03:08:37;;;;;;;1.20;1.05;;;;;;;13.32;100.00;98296.16;6248504;28;20485;-75
2021/10/21 03:11:39;;;;;;;1.35;1.20;;;;;;;13.28;100.00;98302.72;6225215;28;20057;-75
2021/10/21 03:14:40;;;;;;;1.00;0.85;;;;;;;13.25;100.00;98290.66;6224534;28;20052;-75
2021/10/21 03:17:42;;;;;;;0.70;0.57;;;;;;;13.24;100.00;98282.91;6224849;28;20501;-75
2021/10/21 03:20:43;;;;;;;4.68;2.65;;;;;;;13.20;100.00;98254.19;6224780;28;20139;-75
2021/10/21 03:23:46;;;;;;;1.83;1.17;;;;;;;13.15;100.00;98253.84;6224376;28;20417;-75
2021/10/21 03:26:48;;;;;;;1.08;0.70;;;;;;;13.15;100.00;98255.66;6224411;28;20050;-75
2021/10/21 03:29:49;;;;;;;2.13;1.20;;;;;;;13.15;100.00;98268.84;6224717;28;20841;-75
2021/10/21 03:32:51;;;;;;;0.50;0.50;;;;;;;13.11;100.00;98257.78;6224908;28;20053;-74
2021/10/21 03:35:52;;;;;;;3.53;0.75;;;;;;;13.08;100.00;98262.53;6224217;28;20045;-74
2021/10/21 03:38:54;;;;;;;1.92;0.93;;;;;;;13.08;100.00;98281.84;6224352;28;20493;-75
2021/10/21 03:41:56;;;;;;;1.33;0.70;;;;;;;13.18;100.00;98273.81;6224311;28;20053;-74
2021/10/21 03:44:57;;;;;;;0.73;0.60;;;;;;;13.26;100.00;98297.59;6223915;28;20046;-73
2021/10/21 03:47:59;;;;;;;0.40;0.40;;;;;;;13.25;100.00;98298.56;6224164;28;20140;-75
2021/10/21 03:51:00;;;;;;;2.00;0.80;;;;;;;13.10;100.00;98303.59;6224110;28;20053;-75
2021/10/21 03:54:03;;;;;;;1.33;0.60;;;;;;;12.93;100.00;98323.78;6224009;28;20057;-74
2021/10/21 03:57:04;;;;;;;2.28;0.70;;;;;;;12.90;100.00;98312.75;6223881;28;20656;-73
2021/10/21 04:00:08;;;;;;;0.70;0.52;;;;;;;12.77;100.00;98328.16;6224208;28;20068;-74
2021/10/21 04:03:09;;;;;;;0.35;0.20;;;;;;;12.80;100.00;98327.81;6224184;28;20054;-74
2021/10/21 04:06:11;;;;;;;0.75;0.43;;;;;;;12.85;99.00;98333.44;6222796;28;20702;-74
2021/10/21 04:09:14;;;;;;;0.40;0.30;;;;;;;12.84;98.36;98345.78;6223942;28;20141;-75
2021/10/21 04:12:15;;;;;;;0.10;0.10;;;;;;;13.04;90.40;98350.88;6229979;28;20057;-75
2021/10/21 04:15:18;;;;;;;0.55;0.38;;;;;;;13.03;91.25;98354.47;6245295;28;20056;-77
2021/10/21 04:18:19;;;;;;;0.10;0.10;;;;;;;13.12;87.95;98369.34;6248291;28;20095;-77
2021/10/21 04:21:21;;;;;;;0.20;0.20;;;;;;;12.98;90.27;98385.75;6246469;28;20050;-75
2021/10/21 04:24:23;;;;;;;1.75;0.22;;;;;;;12.86;93.15;98370.22;6239715;28;20050;-74
2021/10/21 04:27:25;;;;;;;1.65;0.50;;;;;;;12.73;96.99;98408.50;6240700;28;20052;-75
2021/10/21 04:30:26;;;;;;;0.55;0.30;;;;;;;12.56;98.24;98386.44;6243494;28;20057;-75
2021/10/21 04:33:28;;;;;;;0.98;0.30;;;;;;;12.35;100.00;98377.06;6239684;28;20049;-76
2021/10/21 04:36:29;;;;;;;0.30;0.30;;;;;;;12.19;100.00;98390.91;6239618;28;20489;-74
2021/10/21 04:39:32;;;;;;;0.93;0.43;;;;;;;12.12;100.00;98368.75;6232586;28;20050;-76
2021/10/21 04:42:33;;;;;;;0.60;0.40;;;;;;;12.01;100.00;98387.44;6232565;28;20050;-75
2021/10/21 04:45:34;;;;;;;0.20;0.20;;;;;;;11.90;100.00;98372.69;6222423;28;20049;-74
2021/10/21 04:48:36;;;;;;;0.20;0.20;;;;;;;11.89;100.00;98380.72;6234785;28;20041;-76
2021/10/21 04:51:37;;;;;;;3.10;0.45;;;;;;;11.89;100.00;98378.91;6247283;28;20050;-75
2021/10/21 04:54:40;;;;;;;0.70;0.45;;;;;;;11.87;100.00;98375.59;6246826;28;20512;-74
2021/10/21 04:57:42;;;;;;;0.80;0.55;;;;;;;11.87;100.00;98378.25;6247232;28;20049;-74
2021/10/21 05:00:43;;;;;;;0.40;0.40;;;;;;;11.85;100.00;98385.44;6246266;28;20050;-74
2021/10/21 05:03:45;;;;;;;0.93;0.75;;;;;;;11.90;100.00;98374.50;6247068;28;20041;-76
2021/10/21 05:06:46;;;;;;;0.22;0.22;;;;;;;11.98;100.00;98363.19;6247286;28;20042;-76
2021/10/21 05:09:49;;;;;;;1.55;0.40;;;;;;;11.88;100.00;98360.63;6247912;28;20448;-77
2021/10/21 05:12:51;;;;;;;1.10;0.30;;;;;;;11.92;100.00;98354.09;6247586;28;20053;-76
2021/10/21 05:15:52;;;;;;;0.65;0.50;;;;;;;11.83;100.00;98353.19;6246880;28;20049;-76
2021/10/21 05:18:53;;;;;;;0.85;0.43;;;;;;;11.90;100.00;98346.38;6247060;28;20160;-75
2021/10/21 05:21:55;;;;;;;0.68;0.40;;;;;;;11.90;100.00;98363.97;6246927;28;20416;-74
2021/10/21 05:24:58;;;;;;;1.52;0.50;;;;;;;11.80;100.00;98331.56;6246451;28;20049;-74
2021/10/21 05:28:00;;;;;;;1.27;0.57;;;;;;;11.77;100.00;98334.53;6246624;28;20056;-75
2021/10/21 05:31:01;;;;;;;0.35;0.35;;;;;;;11.77;100.00;98319.56;6245386;28;20133;-75
2021/10/21 05:34:03;;;;;;;0.30;0.30;;;;;;;11.68;100.00;98323.06;6246256;28;20056;-75
2021/10/21 05:37:06;;;;;;;0.20;0.20;;;;;;;11.72;100.00;98320.94;6246641;28;20132;-75
2021/10/21 05:40:10;;;;;;;1.17;0.30;;;;;;;11.69;100.00;98306.31;6246585;28;20053;-74
2021/10/21 05:43:12;;;;;;;0.20;0.20;;;;;;;11.79;100.00;98314.97;6246789;28;20053;-76
2021/10/21 05:46:13;;;;;;;0.30;0.30;;;;;;;11.78;100.00;98302.78;6246085;28;20049;-75
2021/10/21 05:49:14;;;;;;;0.30;0.30;;;;;;;11.67;100.00;98303.84;6246812;28;20053;-76
2021/10/21 05:52:16;;;;;;;0.20;0.20;;;;;;;11.57;100.00;98299.59;6246557;28;20065;-76
2021/10/21 05:55:19;;;;;;;0.50;0.45;;;;;;;11.52;100.00;98291.31;6246102;28;20056;-76
2021/10/21 05:58:20;;;;;;;0.20;0.20;;;;;;;11.55;100.00;98302.38;6246581;28;20501;-75
2021/10/21 06:01:21;;;;;;;0.15;0.15;;;;;;;11.52;100.00;98278.19;6245318;28;20050;-78
2021/10/21 06:04:23;;;;;;;0.57;0.30;;;;;;;11.54;100.00;98273.59;6235413;28;20054;-76
2021/10/21 06:07:24;;;;;;;0.22;0.22;;;;;;;11.50;100.00;98259.91;6221617;28;20564;-76
2021/10/21 06:10:27;;;;;;;4.68;0.47;;;;;;;11.51;100.00;98258.94;6221822;28;20053;-75
2021/10/21 06:13:28;;;;;;;0.17;0.15;;;;;;;11.45;100.00;98249.03;6221852;28;20049;-76
2021/10/21 06:16:30;;;;;;;0.25;0.25;;;;;;;11.40;100.00;98253.91;6222776;28;20042;-76
2021/10/21 06:19:32;;;;;;;0.30;0.28;;;;;;;11.41;100.00;98256.38;6222033;28;20137;-76
2021/10/21 06:22:33;;;;;;;0.52;0.30;;;;;;;11.44;100.00;98257.88;6221975;28;20421;-74
2021/10/21 06:25:36;;;;;;;1.85;0.30;;;;;;;11.49;100.00;98260.06;6221146;28;20042;-75
2021/10/21 06:28:37;;;;;;;0.40;0.40;;;;;;;11.62;100.00;98265.78;6224604;28;20057;-74
2021/10/21 06:31:38;;;;;;;0.38;0.20;;;;;;;11.67;100.00;98269.63;6226288;28;20054;-75
2021/10/21 06:34:43;;;;;;;1.02;0.30;;;;;;;11.62;100.00;98271.84;6226684;28;20391;-76
2021/10/21 06:37:46;;;;;;;0.32;0.25;;;;;;;11.53;100.00;98285.91;6226067;28;20050;-76
2021/10/21 06:40:49;;;;;;;1.17;0.30;;;;;;;11.47;100.00;98268.09;6232585;28;20132;-76
2021/10/21 06:43:50;;;;;;;0.20;0.20;;;;;;;11.43;100.00;98277.25;6250201;28;20420;-77
2021/10/21 06:46:51;;;;;;;1.35;0.35;;;;;;;11.47;100.00;98264.66;6250294;28;20137;-77
2021/10/21 06:49:53;;;;;;;0.20;0.20;;;;;;;11.38;100.00;98296.09;6252034;28;20075;-75
2021/10/21 06:52:54;;;;;;;0.20;0.20;;;;;;;11.33;100.00;98292.28;6251522;28;20057;-76
2021/10/21 06:55:57;;;;;;;0.30;0.30;;;;;;;11.23;100.00;98326.50;6250031;28;20050;-76
2021/10/21 06:58:58;;;;;;;0.77;0.38;;;;;;;11.26;100.00;98291.19;6249947;28;20060;-76
2021/10/21 07:02:00;;;;;;;1.65;0.43;;;;;;;11.21;100.00;98291.63;6249621;28;20052;-75
2021/10/21 07:05:01;;;;;;;0.10;0.10;;;;;;;11.28;100.00;98300.59;6249077;28;20064;-75
2021/10/21 07:08:02;;;;;;;1.10;0.32;;;;;;;11.22;100.00;98311.72;6249959;28;20056;-74
2021/10/21 07:11:05;;;;;;;1.88;0.40;;;;;;;11.19;100.00;98312.00;6249674;28;20056;-76
2021/10/21 07:14:07;;;;;;;0.30;0.20;;;;;;;11.08;100.00;98326.16;6249467;28;20397;-75
2021/10/21 07:17:08;;;;;;;0.43;0.30;;;;;;;10.92;100.00;98337.25;6249559;28;20061;-75
2021/10/21 07:20:13;;;;;;;0.50;0.40;;;;;;;10.86;100.00;98368.56;6249591;28;20416;-74
2021/10/21 07:23:14;;;;;;;0.68;0.40;;;;;;;10.77;100.00;98395.69;6250798;28;20056;-75
2021/10/21 07:26:17;;;;;;;0.70;0.70;;;;;;;10.71;100.00;98519.69;6250341;28;20045;-79
2021/10/21 07:29:19;;;;;;;2.38;0.40;;;;;;;10.07;100.00;98534.03;6250941;28;20543;-77
2021/10/21 07:32:20;;;;;;;0.38;0.13;;;;;;;9.14;100.00;98498.25;6241623;28;20046;-72
2021/10/21 07:35:22;;;;;;;0.10;0.10;;;;;;;8.84;100.00;98501.63;6224626;28;20042;-73
2021/10/21 07:38:23;;;;;;;0.28;0.20;;;;;;;8.79;100.00;98529.97;6224122;28;20065;-74
2021/10/21 07:41:27;;;;;;;6.93;0.20;;;;;;;8.78;100.00;98544.84;6223848;28;20057;-73
2021/10/21 07:44:31;;;;;;;0.20;0.20;;;;;;;8.77;100.00;98579.03;6224420;28;20060;-73
2021/10/21 07:47:32;;;;;;;0.10;0.10;;;;;;;8.69;100.00;98587.50;6225656;28;20136;-71
2021/10/21 07:50:33;;;;;;;0.10;0.10;;;;;;;8.56;100.00;98592.88;6224945;28;20054;-76
2021/10/21 07:53:35;;;;;;;0.00;0.00;;;;;;;8.60;100.00;98612.63;6224755;28;20057;-76
2021/10/21 07:56:38;;;;;;;0.10;0.10;;;;;;;8.60;100.00;98623.09;6224326;28;20046;-72
2021/10/21 07:59:39;;;;;;;0.52;0.22;;;;;;;8.66;100.00;98644.50;6223871;28;20421;-75
2021/10/21 08:02:42;;;;;;;0.10;0.10;;;;;;;8.64;100.00;98653.31;6234586;28;20060;-78
2021/10/21 08:05:43;;;;;;;0.10;0.10;;;;;;;8.70;100.00;98678.19;6253008;28;20045;-77
2021/10/21 08:08:45;;;;;;;0.00;0.00;;;;;;;8.63;100.00;98688.31;6252791;28;20421;-79
2021/10/21 08:11:50;;;;;;;1.10;0.30;;;;;;;8.63;100.00;98695.34;6253630;28;20507;-78
2021/10/21 08:14:51;;;;;;;0.15;0.10;;;;;;;8.69;100.00;98722.81;6253170;28;20127;-77
2021/10/21 08:17:54;;;;;;;0.00;0.00;;;;;;;8.67;100.00;98735.19;6251158;28;20050;-78
2021/10/21 08:20:56;;;;;;;0.10;0.10;;;;;;;8.75;100.00;98759.84;6251789;28;20053;-78
2021/10/21 08:23:58;;;;;;;0.10;0.10;;;;;;;8.78;100.00;98772.69;6249331;28;20061;-77
2021/10/21 08:27:01;;;;;;;0.00;0.00;;;;;;;8.88;100.00;98802.44;6249105;28;20045;-76
2021/10/21 08:30:03;;;;;;;0.15;0.10;;;;;;;8.89;100.00;98819.81;6248266;28;20045;-78
2021/10/21 08:33:04;;;;;;;0.20;0.20;;;;;;;8.96;100.00;98848.19;6245091;28;20053;-74
2021/10/21 08:36:10;;;;;;;3.33;0.30;;;;;;;8.99;100.00;98859.25;6243269;28;20037;-74
2021/10/21 08:39:12;;;;;;;0.20;0.20;;;;;;;9.03;100.00;98875.56;6242691;28;20103;-75
2021/10/21 08:42:16;;;;;;;0.00;0.00;;;;;;;8.99;100.00;98902.94;6242315;28;20412;-74
2021/10/21 08:45:18;;;;;;;0.10;0.10;;;;;;;9.08;100.00;98908.34;6247104;28;20052;-75
2021/10/21 08:48:19;;;;;;;0.10;0.10;;;;;;;9.03;100.00;98939.28;6241049;28;20424;-77
2021/10/21 08:51:21;;;;;;;0.10;0.10;;;;;;;9.06;100.00;98952.16;6248128;28;20053;-77
2021/10/21 08:54:23;;;;;;;0.10;0.10;;;;;;;9.09;100.00;98964.22;6247199;28;20045;-76
2021/10/21 08:57:26;;;;;;;1.08;0.20;;;;;;;9.05;100.00;98975.88;6248458;28;20045;-76
2021/10/21 09:00:28;;;;;;;1.90;0.32;;;;;;;8.95;100.00;98991.44;6247182;28;20515;-77
2021/10/21 09:03:40;;;;;;;0.15;0.15;;;;;;;8.99;100.00;99015.59;6245303;28;20077;-76
2021/10/21 09:07:54;;;;;;;4.65;0.35;;;;;;;9.01;100.00;99018.97;6249208;28;20045;-77
2021/10/21 09:10:11;;;;;;;;;;;;;;;9.02;100.00;99036.34;6245972;28;20053;-78
2021/10/21 09:13:22;;;;;;;0.30;0.30;;;;;;;8.99;100.00;99063.59;6248520;28;19921;-78
2021/10/21 09:16:23;;;;;;;0.98;0.20;;;;;;;9.03;100.00;99072.91;6248952;28;20053;-77
2021/10/21 09:19:28;;;;;;;0.10;0.10;;;;;;;9.06;100.00;99103.31;6238403;28;20516;-77
2021/10/21 09:22:30;;;;;;;0.10;0.10;;;;;;;9.07;100.00;99105.81;6240259;28;20064;-77
2021/10/21 09:25:31;;;;;;;0.10;0.10;;;;;;;9.13;100.00;99130.75;6230464;28;20057;-77
2021/10/21 09:28:34;;;;;;;0.20;0.20;;;;;;;9.11;100.00;99148.34;6244296;28;20138;-78
2021/10/21 09:31:35;;;;;;;0.73;0.40;;;;;;;9.17;100.00;99147.06;6248095;28;20045;-75
2021/10/21 09:34:44;;;;;;;0.20;0.20;;;;;;;9.27;100.00;99161.19;6242907;28;20501;-74
2021/10/21 09:37:47;;;;;;;0.10;0.10;;;;;;;9.32;100.00;99166.91;6246247;28;20061;-75
2021/10/21 09:40:48;;;;;;;1.00;0.50;;;;;;;9.42;100.00;99183.63;6246900;28;20049;-75
2021/10/21 09:43:51;;;;;;;0.22;0.22;;;;;;;9.42;100.00;99193.28;6246140;28;20057;-73
2021/10/21 09:46:53;;;;;;;2.55;0.70;;;;;;;9.44;100.00;99194.84;6246422;28;20516;-74
2021/10/21 09:49:56;;;;;;;1.48;0.50;;;;;;;9.55;100.00;99221.13;6246262;28;20053;-74
2021/10/21 09:53:09;;;;;;;0.55;0.45;;;;;;;9.63;100.00;99210.91;6246242;28;20508;-75
2021/10/21 09:56:10;;;;;;;0.82;0.55;;;;;;;9.76;100.00;99233.59;6246103;28;20054;-76
2021/10/21 09:59:13;;;;;;;0.35;0.35;;;;;;;9.82;100.00;99238.41;6246135;28;20052;-76
2021/10/21 10:02:21;;;;;;;0.98;0.50;;;;;;;9.97;100.00;99237.25;6245493;28;20054;-76
2021/10/21 10:05:22;;;;;;;1.75;0.20;;;;;;;10.11;100.00;99255.41;6226212;28;20412;-76
2021/10/21 10:08:24;;;;;;;1.13;0.40;;;;;;;10.23;100.00;99279.06;6226354;28;20049;-77
2021/10/21 10:11:26;;;;;;;2.30;0.70;;;;;;;10.35;100.00;99283.41;6226629;28;20050;-76
2021/10/21 10:14:29;;;;;;;0.30;0.30;;;;;;;10.45;100.00;99280.94;6226159;28;20140;-76
2021/10/21 10:17:31;;;;;;;0.95;0.40;;;;;;;10.44;100.00;99297.63;6226156;28;20058;-74
2021/10/21 10:20:33;;;;;;;1.83;0.57;;;;;;;10.44;100.00;99290.59;6243664;28;20045;-74
2021/10/21 10:23:36;;;;;;;0.55;0.30;;;;;;;10.40;100.00;99292.63;6249246;28;20063;-75
2021/10/21 10:26:43;;;;;;;0.75;0.38;;;;;;;10.33;100.00;99301.09;6250139;28;20053;-75
2021/10/21 10:29:47;;;;;;;0.73;0.32;;;;;;;10.35;100.00;99312.28;6250493;28;20046;-76
2021/10/21 10:32:49;;;;;;;2.03;0.60;;;;;;;10.40;100.00;99297.03;6249857;28;20046;-76
2021/10/21 10:35:50;;;;;;;0.95;0.50;;;;;;;10.56;100.00;99308.06;6249927;28;20443;-75
2021/10/21 10:38:52;;;;;;;0.88;0.43;;;;;;;10.50;100.00;99308.53;6250571;28;20057;-76
2021/10/21 10:41:54;;;;;;;3.33;0.57;;;;;;;10.34;100.00;99335.09;6250214;28;20516;-75
2021/10/21 10:45:01;;;;;;;0.20;0.20;;;;;;;10.07;100.00;99368.63;6250301;28;20053;-76
2021/10/21 10:48:03;;;;;;;3.13;0.47;;;;;;;9.87;100.00;99419.94;6250145;28;20041;-76
2021/10/21 10:51:04;;;;;;;0.40;0.35;;;;;;;9.49;100.00;99428.72;6250747;28;20053;-75
2021/10/21 10:54:06;;;;;;;1.42;0.40;;;;;;;9.25;100.00;99422.56;6249985;28;20049;-76
2021/10/21 10:57:07;;;;;;;0.70;0.20;;;;;;;9.27;100.00;99439.03;6249766;28;20049;-76
2021/10/21 11:00:35;;;;;;;3.10;0.40;;;;;;;9.13;100.00;99426.88;6249313;28;20061;-74
2021/10/21 11:03:41;;;;;;;3.17;0.30;;;;;;;9.09;100.00;99449.00;6231799;28;20128;-74
2021/10/21 11:06:42;;;;;;;0.73;0.40;;;;;;;9.07;100.00;99453.50;6231096;28;20111;-75
2021/10/21 11:09:44;;;;;;;1.65;0.60;;;;;;;9.12;100.00;99452.22;6249864;28;20045;-76
2021/10/21 11:12:45;;;;;;;4.72;0.43;;;;;;;9.08;100.00;99453.41;6249593;28;20049;-75
2021/10/21 11:15:49;;;;;;;0.25;0.15;;;;;;;9.06;100.00;99471.00;6246992;28;20045;-76
2021/10/21 11:18:51;;;;;;;5.25;0.40;;;;;;;9.12;100.00;99461.88;6249467;28;20492;-76
2021/10/21 11:21:54;;;;;;;1.08;0.43;;;;;;;8.96;100.00;99483.03;6249342;28;20048;-77
2021/10/21 11:25:03;;;;;;;0.10;0.10;;;;;;;8.86;100.00;99492.47;6249289;28;20049;-77
2021/10/21 11:28:06;;;;;;;0.32;0.20;;;;;;;8.72;100.00;99500.38;6249749;28;20053;-76
2021/10/21 11:31:10;;;;;;;0.60;0.20;;;;;;;8.58;100.00;99504.75;6249513;28;20045;-76
2021/10/21 11:34:13;;;;;;;0.10;0.10;;;;;;;8.42;100.00;99519.78;6248146;28;20140;-77
2021/10/21 11:37:14;;;;;;;0.30;0.30;;;;;;;8.29;100.00;99517.06;6249106;28;20515;-75
2021/10/21 11:40:25;;;;;;;0.52;0.20;;;;;;;8.23;100.00;99537.56;6249140;28;20582;-75
2021/10/21 11:43:35;;;;;;;0.10;0.10;;;;;;;8.18;100.00;99543.09;6248739;28;20041;-76
2021/10/21 11:46:38;;;;;;;0.20;0.20;;;;;;;8.09;100.00;99538.44;6248750;28;20081;-76
2021/10/21 11:49:39;;;;;;;0.10;0.10;;;;;;;8.07;100.00;99546.34;6249099;28;20045;-76
2021/10/21 11:52:42;;;;;;;0.10;0.10;;;;;;;8.10;100.00;99561.03;6248488;28;20053;-75
2021/10/21 11:55:46;;;;;;;0.25;0.20;;;;;;;8.10;100.00;99561.03;6248387;28;20494;-75
2021/10/21 11:58:48;;;;;;;0.30;0.13;;;;;;;8.08;100.00;99555.91;6248375;28;20053;-76
2021/10/21 12:01:50;;;;;;;0.55;0.40;;;;;;;8.07;100.00;99577.75;6248677;28;20052;-76
2021/10/21 12:04:52;;;;;;;0.10;0.10;;;;;;;8.07;100.00;99596.06;6246810;28;20416;-76
2021/10/21 12:07:54;;;;;;;0.22;0.22;;;;;;;8.05;100.00;99571.78;6248125;28;20046;-76
2021/10/21 12:10:57;;;;;;;0.10;0.10;;;;;;;8.02;100.00;99592.88;6248195;28;20057;-75
2021/10/21 12:14:01;;;;;;;0.00;0.00;;;;;;;8.03;100.00;99605.03;6247927;28;20049;-76
2021/10/21 12:17:05;;;;;;;0.20;0.20;;;;;;;8.03;100.00;99604.19;6248207;28;20049;-75
2021/10/21 12:20:08;;;;;;;1.50;0.10;;;;;;;8.07;100.00;99609.16;6247791;28;20132;-73
2021/10/21 12:23:18;;;;;;;1.02;0.40;;;;;;;8.09;100.00;99604.69;6248903;28;20643;-77
2021/10/21 12:26:24;;;;;;;0.40;0.20;;;;;;;8.11;100.00;99615.88;6246560;28;20088;-76
2021/10/21 12:29:33;;;;;;;0.28;0.13;;;;;;;8.07;100.00;99619.59;6244996;28;20128;-77
2021/10/21 12:32:36;;;;;;;0.10;0.10;;;;;;;8.01;100.00;99627.00;6246298;28;20048;-77
2021/10/21 12:35:53;;;;;;;0.10;0.10;;;;;;;7.92;100.00;99617.09;6248727;28;20053;-76
2021/10/21 12:39:02;;;;;;;3.63;0.22;;;;;;;7.93;100.00;99606.53;6239934;28;20521;-76
2021/10/21 12:42:07;;;;;;;0.10;0.10;;;;;;;7.94;100.00;99602.97;6247838;28;20068;-76
2021/10/21 12:45:09;;;;;;;0.63;0.30;;;;;;;8.00;100.00;99620.09;6247285;28;20061;-77
2021/10/21 12:48:25;;;;;;;3.25;0.43;;;;;;;8.01;100.00;99624.38;6247508;28;20045;-76
2021/10/21 12:51:33;;;;;;;0.15;0.15;;;;;;;7.97;100.00;99631.56;6247412;28;20416;-75
2021/10/21 12:54:36;;;;;;;0.00;0.00;;;;;;;7.94;100.00;99644.00;6247401;28;20050;-76
2021/10/21 12:57:42;;;;;;;0.08;0.08;;;;;;;7.97;100.00;99651.66;6247039;28;20489;-74
2021/10/21 13:00:46;;;;;;;0.10;0.10;;;;;;;7.81;100.00;99652.59;6247291;28;20053;-77
2021/10/21 13:03:49;;;;;;;0.00;0.00;;;;;;;7.73;100.00;99656.59;6225333;28;20046;-76
2021/10/21 13:06:50;;;;;;;0.80;0.28;;;;;;;7.72;100.00;99668.84;6222516;28;20045;-76
2021/10/21 13:09:52;;;;;;;0.00;0.00;;;;;;;7.65;100.00;99677.94;6222471;28;20049;-75
2021/10/21 13:12:54;;;;;;;0.25;0.20;;;;;;;7.64;100.00;99689.34;6223012;28;20053;-77
2021/10/21 13:15:56;;;;;;;0.10;0.10;;;;;;;7.54;100.00;99685.56;6222364;28;20056;-76
2021/10/21 13:19:01;;;;;;;0.30;0.10;;;;;;;7.58;100.00;99694.91;6223226;28;20042;-76
2021/10/21 13:22:03;;;;;;;0.08;0.08;;;;;;;7.44;100.00;99705.31;6222598;28;20049;-77
2021/10/21 13:25:08;;;;;;;0.00;0.00;;;;;;;7.35;100.00;99704.91;6222347;28;20046;-74
2021/10/21 13:28:09;;;;;;;0.08;0.08;;;;;;;7.33;100.00;99698.09;6222552;28;20140;-76
2021/10/21 13:31:10;;;;;;;0.32;0.10;;;;;;;7.29;100.00;99714.88;6222194;28;20053;-75
2021/10/21 13:34:13;;;;;;;0.20;0.15;;;;;;;7.34;100.00;99715.47;6235156;28;20079;-76
2021/10/21 13:37:14;;;;;;;0.00;0.00;;;;;;;7.30;100.00;99725.25;6248983;28;20050;-76
2021/10/21 13:40:16;;;;;;;0.00;0.00;;;;;;;7.29;100.00;99728.78;6251933;28;20056;-76
2021/10/21 13:43:17;;;;;;;0.20;0.20;;;;;;;7.36;100.00;99737.97;6251725;28;20052;-76
2021/10/21 13:46:18;;;;;;;4.68;0.20;;;;;;;7.46;100.00;99747.91;6242007;28;20505;-76
2021/10/21 13:49:21;;;;;;;0.10;0.10;;;;;;;7.42;100.00;99746.41;6239252;28;20048;-76
2021/10/21 13:52:22;;;;;;;0.88;0.15;;;;;;;7.46;100.00;99761.84;6251727;28;20057;-77
2021/10/21 13:55:24;;;;;;;0.32;0.28;;;;;;;7.48;100.00;99746.88;6251256;28;20054;-76
2021/10/21 13:58:26;;;;;;;0.10;0.10;;;;;;;7.53;100.00;99741.41;6251308;28;20404;-76
2021/10/21 14:01:27;;;;;;;0.10;0.10;;;;;;;7.71;100.00;99735.13;6251252;28;20077;-76
2021/10/21 14:04:30;;;;;;;0.22;0.20;;;;;;;7.67;100.00;99748.44;6250654;28;20594;-76
2021/10/21 14:07:32;;;;;;;0.20;0.20;;;;;;;7.73;100.00;99769.88;6251007;28;20048;-75
2021/10/21 14:10:34;;;;;;;0.00;0.00;;;;;;;7.72;100.00;99783.03;6251068;28;20419;-76
2021/10/21 14:13:35;;;;;;;0.30;0.30;;;;;;;7.75;100.00;99801.16;6251275;28;20053;-77